createdAt,value
2019-05-19T00:02:00.038Z,18.10
2019-05-19T00:04:30.708Z,19.17
2019-05-19T00:07:01.341Z,20.83
2019-05-19T00:09:31.903Z,18.50
2019-05-19T00:12:04.183Z,18.17
2019-05-19T00:14:34.931Z,19.07
2019-05-19T00:17:10.667Z,18.07
2019-05-19T00:19:42.095Z,18.00
2019-05-19T00:22:12.937Z,16.17
2019-05-19T00:24:43.360Z,17.73
2019-05-19T00:27:14.478Z,16.83
2019-05-19T00:29:45.693Z,19.47
2019-05-19T00:32:16.146Z,17.47
2019-05-19T00:34:46.599Z,16.23
2019-05-19T00:37:16.999Z,15.93
2019-05-19T00:39:49.148Z,19.37
2019-05-19T00:42:19.784Z,20.37
2019-05-19T00:44:53.814Z,21.03
2019-05-19T00:47:24.336Z,23.10
2019-05-19T00:49:54.762Z,21.00
2019-05-19T00:52:25.312Z,22.57
2019-05-19T00:54:55.825Z,22.13
2019-05-19T00:57:45.302Z,19.87
2019-05-19T01:00:15.833Z,18.53
2019-05-19T01:02:46.237Z,19.77
2019-05-19T01:05:16.669Z,25.50
2019-05-19T01:07:47.303Z,23.47
2019-05-19T01:10:18.215Z,20.50
2019-05-19T01:12:48.644Z,24.77
2019-05-19T01:15:19.067Z,19.50
2019-05-19T01:17:49.633Z,22.03
2019-05-19T01:20:22.315Z,20.33
2019-05-19T01:22:52.733Z,20.23
2019-05-19T01:25:23.687Z,22.90
2019-05-19T01:27:54.119Z,19.87
2019-05-19T01:30:24.523Z,18.87
2019-05-19T01:32:54.945Z,18.87
2019-05-19T01:35:26.377Z,19.67
2019-05-19T01:38:02.982Z,18.60
2019-05-19T01:40:33.380Z,19.50
2019-05-19T01:43:54.333Z,19.87
2019-05-19T01:46:24.871Z,19.97
2019-05-19T01:48:55.853Z,18.30
2019-05-19T01:51:26.300Z,20.23
2019-05-19T01:53:57.212Z,17.00
2019-05-19T01:56:29.212Z,23.17
2019-05-19T01:58:59.603Z,20.00
2019-05-19T02:01:30.035Z,19.60
2019-05-19T02:04:01.083Z,22.00
2019-05-19T02:06:33.360Z,20.97
2019-05-19T02:09:05.140Z,19.73
2019-05-19T02:11:35.624Z,22.93
2019-05-19T02:14:06.581Z,23.87
2019-05-19T02:16:37.079Z,21.83
2019-05-19T02:19:19.929Z,20.53
2019-05-19T02:21:50.387Z,21.07
2019-05-19T02:24:20.834Z,19.93
2019-05-19T02:26:51.283Z,20.47
2019-05-19T02:29:22.251Z,18.87
2019-05-19T02:31:52.697Z,22.97
2019-05-19T02:34:23.146Z,22.27
2019-05-19T02:36:53.574Z,23.57
2019-05-19T02:39:36.937Z,19.80
2019-05-19T02:42:07.333Z,21.63
2019-05-19T02:44:40.497Z,21.07
2019-05-19T02:47:11.177Z,25.20
2019-05-19T02:52:30.988Z,23.43
2019-05-19T02:55:01.524Z,26.73
2019-05-19T02:57:32.824Z,21.87
2019-05-19T03:00:03.485Z,24.43
2019-05-19T03:02:34.114Z,29.20
2019-05-19T03:05:07.011Z,22.97
2019-05-19T03:07:37.920Z,22.10
2019-05-19T03:10:08.444Z,24.33
2019-05-19T03:12:39.006Z,23.40
2019-05-19T03:15:09.448Z,25.53
2019-05-19T03:17:40.096Z,25.40
2019-05-19T03:20:11.054Z,23.00
2019-05-19T03:22:41.573Z,23.57
2019-05-19T03:25:12.641Z,28.00
2019-05-19T03:27:43.108Z,23.93
2019-05-19T03:30:31.289Z,27.83
2019-05-19T03:33:02.993Z,26.53
2019-05-19T03:35:33.723Z,23.00
2019-05-19T03:38:04.246Z,23.87
2019-05-19T03:40:34.655Z,24.47
2019-05-19T03:43:05.125Z,24.47
2019-05-19T03:45:35.786Z,26.10
2019-05-19T03:48:06.547Z,25.77
2019-05-19T03:50:36.963Z,24.53
2019-05-19T03:53:07.717Z,26.53
2019-05-19T03:55:38.251Z,27.77
2019-05-19T03:58:08.649Z,30.97
2019-05-19T04:00:40.414Z,24.73
2019-05-19T04:03:10.861Z,25.57
2019-05-19T04:05:41.345Z,26.63
2019-05-19T04:08:12.086Z,28.17
2019-05-19T04:10:42.607Z,29.93
2019-05-19T04:13:13.067Z,30.03
2019-05-19T04:15:43.859Z,31.87
2019-05-19T04:18:17.663Z,33.03
2019-05-19T04:20:47.749Z,32.47
2019-05-19T04:23:18.181Z,35.03
2019-05-19T04:25:48.668Z,31.17
2019-05-19T04:28:19.134Z,31.80
2019-05-19T04:30:49.585Z,33.43
2019-05-19T04:33:20.030Z,36.30
2019-05-19T04:35:50.464Z,29.50
2019-05-19T04:38:21.116Z,32.30
2019-05-19T04:41:01.901Z,27.00
2019-05-19T04:43:32.361Z,29.30
2019-05-19T04:46:04.164Z,29.97
2019-05-19T04:48:34.556Z,28.13
2019-05-19T04:51:04.958Z,30.20
2019-05-19T04:53:37.518Z,28.30
2019-05-19T04:56:19.874Z,29.47
2019-05-19T04:58:50.070Z,27.20
2019-05-19T05:01:20.486Z,31.00
2019-05-19T05:03:50.955Z,31.10
2019-05-19T05:06:21.566Z,30.97
2019-05-19T05:08:52.029Z,28.50
2019-05-19T05:11:22.741Z,28.73
2019-05-19T05:13:53.171Z,25.97
2019-05-19T05:16:23.627Z,28.80
2019-05-19T05:18:54.057Z,26.83
2019-05-19T05:21:24.687Z,31.23
2019-05-19T05:24:00.138Z,28.67
2019-05-19T05:26:30.624Z,30.10
2019-05-19T05:29:01.058Z,27.13
2019-05-19T05:31:31.475Z,23.90
2019-05-19T05:34:02.177Z,24.20
2019-05-19T05:36:33.075Z,23.90
2019-05-19T05:39:04.982Z,26.17
2019-05-19T05:41:35.457Z,23.20
2019-05-19T05:44:06.080Z,23.73
2019-05-19T05:46:36.748Z,22.43
2019-05-19T05:49:07.262Z,21.80
2019-05-19T05:51:40.291Z,25.33
2019-05-19T05:54:11.095Z,27.50
2019-05-19T05:56:42.103Z,20.53
2019-05-19T05:59:15.841Z,22.70
2019-05-19T06:01:46.306Z,22.47
2019-05-19T06:04:17.559Z,20.47
2019-05-19T06:06:48.123Z,21.77
2019-05-19T06:09:19.094Z,21.43
2019-05-19T06:11:50.337Z,20.90
2019-05-19T06:14:21.110Z,23.30
2019-05-19T06:16:52.086Z,17.33
2019-05-19T06:19:35.203Z,17.90
2019-05-19T06:22:08.352Z,18.17
2019-05-19T06:24:45.064Z,17.13
2019-05-19T06:27:14.321Z,17.17
2019-05-19T06:29:44.800Z,19.37
2019-05-19T06:32:38.634Z,19.77
2019-05-19T06:35:09.090Z,17.13
2019-05-19T06:37:39.581Z,16.97
2019-05-19T06:40:12.881Z,16.80
2019-05-19T06:42:43.369Z,22.13
2019-05-19T06:45:17.213Z,18.13
2019-05-19T06:47:49.675Z,23.73
2019-05-19T06:50:20.230Z,18.83
2019-05-19T06:52:50.796Z,18.33
2019-05-19T06:55:21.260Z,19.13
2019-05-19T06:57:53.187Z,22.40
2019-05-19T07:00:23.696Z,16.97
2019-05-19T07:03:00.230Z,19.53
2019-05-19T07:05:31.707Z,17.53
2019-05-19T07:08:08.109Z,17.40
2019-05-19T07:10:38.841Z,16.47
2019-05-19T07:13:09.504Z,16.57
2019-05-19T07:15:39.984Z,15.17
2019-05-19T07:18:10.463Z,15.43
2019-05-19T07:20:41.066Z,15.57
2019-05-19T07:23:11.962Z,15.70
2019-05-19T07:25:42.937Z,16.87
2019-05-19T07:28:17.595Z,18.70
2019-05-19T07:30:48.120Z,16.23
2019-05-19T07:33:18.915Z,17.87
2019-05-19T07:35:50.764Z,17.60
2019-05-19T07:38:21.229Z,16.07
2019-05-19T07:40:55.217Z,16.67
2019-05-19T07:43:28.407Z,19.63
2019-05-19T07:46:02.094Z,16.17
2019-05-19T07:48:34.224Z,16.60
2019-05-19T07:51:08.192Z,16.63
2019-05-19T07:53:42.878Z,16.60
2019-05-19T07:56:14.738Z,15.40
2019-05-19T07:58:45.267Z,16.50
2019-05-19T08:01:20.047Z,16.87
2019-05-19T08:03:50.579Z,14.67
2019-05-19T08:06:28.671Z,19.10
2019-05-19T08:09:02.127Z,16.50
2019-05-19T08:11:33.650Z,15.90
2019-05-19T08:14:09.751Z,15.63
2019-05-19T08:16:40.237Z,16.37
2019-05-19T08:19:10.690Z,16.50
2019-05-19T08:21:41.155Z,16.80
2019-05-19T08:24:11.642Z,16.17
2019-05-19T08:26:42.369Z,18.83
2019-05-19T08:29:14.485Z,19.17
2019-05-19T08:31:50.230Z,16.57
2019-05-19T08:34:21.090Z,17.70
2019-05-19T08:36:57.290Z,18.00
2019-05-19T08:39:28.888Z,17.13
2019-05-19T08:41:59.361Z,17.70
2019-05-19T08:44:29.762Z,17.07
2019-05-19T08:47:05.130Z,17.30
2019-05-19T08:49:39.457Z,18.90
2019-05-19T08:52:13.672Z,16.70
2019-05-19T08:54:49.609Z,17.83
2019-05-19T08:57:20.346Z,17.53
2019-05-19T08:59:51.164Z,17.40
2019-05-19T09:02:24.101Z,17.60
2019-05-19T09:04:54.913Z,16.63
2019-05-19T09:07:25.391Z,17.77
2019-05-19T09:09:56.042Z,18.13
2019-05-19T09:12:26.836Z,16.97
2019-05-19T09:15:06.007Z,18.23
2019-05-19T09:17:39.311Z,17.43
2019-05-19T09:20:10.060Z,17.00
2019-05-19T09:22:42.236Z,16.60
2019-05-19T09:25:12.666Z,16.43
2019-05-19T09:27:43.419Z,16.03
2019-05-19T09:30:15.185Z,16.83
2019-05-19T09:32:45.745Z,15.33
2019-05-19T09:35:16.232Z,16.47
2019-05-19T09:37:47.118Z,14.73
2019-05-19T09:40:19.106Z,14.47
2019-05-19T09:42:55.117Z,16.77
2019-05-19T09:45:25.186Z,18.53
2019-05-19T09:47:57.906Z,15.90
2019-05-19T09:50:30.627Z,15.60
2019-05-19T09:53:05.778Z,16.63
2019-05-19T09:55:38.859Z,17.10
2019-05-19T09:58:09.346Z,14.70
2019-05-19T10:00:45.670Z,15.50
2019-05-19T10:03:19.787Z,16.10
2019-05-19T10:05:57.939Z,16.13
2019-05-19T10:08:55.880Z,15.60
2019-05-19T10:12:00.502Z,15.20
2019-05-19T10:14:30.963Z,15.40
2019-05-19T10:17:01.653Z,14.87
2019-05-19T10:19:34.795Z,15.23
2019-05-19T10:22:05.399Z,15.07
2019-05-19T10:24:57.820Z,15.20
2019-05-19T10:27:21.858Z,14.53
2019-05-19T10:29:54.095Z,13.87
2019-05-19T10:32:26.318Z,15.13
2019-05-19T10:34:57.179Z,16.47
2019-05-19T10:37:28.283Z,14.47
2019-05-19T10:39:59.495Z,15.97
2019-05-19T10:42:30.242Z,14.27
2019-05-19T10:45:00.725Z,13.77
2019-05-19T10:47:31.115Z,13.60
2019-05-19T10:50:01.622Z,14.90
2019-05-19T10:52:34.352Z,14.07
2019-05-19T10:55:05.084Z,15.23
2019-05-19T10:57:37.166Z,14.40
2019-05-19T11:00:08.739Z,13.87
2019-05-19T11:02:42.702Z,13.57
2019-05-19T11:05:13.413Z,11.87
2019-05-19T11:07:53.615Z,10.67
2019-05-19T11:10:24.165Z,11.90
2019-05-19T11:12:54.729Z,12.77
2019-05-19T11:15:28.671Z,13.03
2019-05-19T11:18:07.885Z,12.93
2019-05-19T11:20:41.765Z,11.93
2019-05-19T11:23:24.015Z,12.40
2019-05-19T11:25:55.067Z,12.00
2019-05-19T11:28:25.631Z,13.60
2019-05-19T11:30:59.794Z,14.30
2019-05-19T11:33:29.239Z,13.27
2019-05-19T11:36:06.174Z,13.10
2019-05-19T11:38:41.392Z,13.10
2019-05-19T11:41:15.096Z,12.10
2019-05-19T11:44:14.735Z,12.53
2019-05-19T11:46:49.300Z,12.23
2019-05-19T11:49:24.861Z,12.03
2019-05-19T11:52:04.963Z,10.87
2019-05-19T11:54:41.182Z,10.73
2019-05-19T11:57:32.251Z,10.50
2019-05-19T12:00:06.524Z,10.40
2019-05-19T12:03:03.609Z,10.27
2019-05-19T12:05:37.756Z,10.83
2019-05-19T12:08:21.227Z,11.97
2019-05-19T12:10:53.195Z,12.13
2019-05-19T12:13:25.997Z,11.03
2019-05-19T12:15:58.265Z,11.87
2019-05-19T12:18:32.396Z,10.07
2019-05-19T12:21:04.871Z,11.67
2019-05-19T12:23:35.584Z,12.00
2019-05-19T12:26:22.212Z,10.97
2019-05-19T12:28:42.592Z,11.33
2019-05-19T12:31:17.110Z,10.30
2019-05-19T12:33:52.471Z,11.03
2019-05-19T12:36:25.080Z,10.10
2019-05-19T12:38:55.526Z,10.70
2019-05-19T12:41:40.847Z,10.67
2019-05-19T12:44:15.611Z,11.03
2019-05-19T12:46:49.556Z,9.87
2019-05-19T12:49:31.970Z,10.40
2019-05-19T12:52:07.180Z,13.33
2019-05-19T12:54:39.309Z,11.10
2019-05-19T12:57:12.244Z,10.23
2019-05-19T12:59:42.986Z,10.47
2019-05-19T13:02:13.387Z,10.23
2019-05-19T13:04:44.093Z,10.57
2019-05-19T13:07:15.178Z,10.93
2019-05-19T13:09:45.648Z,9.60
2019-05-19T13:12:19.140Z,10.30
2019-05-19T13:14:54.313Z,10.00
2019-05-19T13:17:24.707Z,11.23
2019-05-19T13:19:55.234Z,11.73
2019-05-19T13:22:34.284Z,11.10
2019-05-19T13:25:10.101Z,10.10
2019-05-19T13:27:41.391Z,11.27
2019-05-19T13:30:12.028Z,10.83
2019-05-19T13:32:42.999Z,11.03
2019-05-19T13:35:13.485Z,10.20
2019-05-19T13:37:43.935Z,10.80
2019-05-19T13:40:14.361Z,10.03
2019-05-19T13:42:46.302Z,11.03
2019-05-19T13:45:17.115Z,9.27
2019-05-19T13:47:47.899Z,9.07
2019-05-19T13:50:25.586Z,8.87
2019-05-19T13:52:59.203Z,8.27
2019-05-19T13:55:30.112Z,8.17
2019-05-19T13:58:03.446Z,8.87
2019-05-19T14:00:32.935Z,7.87
2019-05-19T14:03:03.402Z,7.60
2019-05-19T14:05:33.813Z,7.97
2019-05-19T14:08:07.014Z,6.93
2019-05-19T14:10:41.682Z,7.27
2019-05-19T14:13:12.113Z,7.20
2019-05-19T14:15:53.561Z,7.43
2019-05-19T14:18:27.652Z,7.30
2019-05-19T14:20:58.097Z,6.97
2019-05-19T14:23:29.651Z,6.93
2019-05-19T14:26:00.498Z,8.60
2019-05-19T14:28:32.092Z,5.67
2019-05-19T14:31:02.773Z,5.20
2019-05-19T14:33:34.242Z,6.13
2019-05-19T14:36:06.251Z,11.30
2019-05-19T14:38:39.658Z,5.77
2019-05-19T14:41:10.494Z,5.60
2019-05-19T14:43:44.107Z,5.40
2019-05-19T14:46:14.671Z,8.30
2019-05-19T14:48:46.754Z,6.23
2019-05-19T14:51:22.039Z,6.90
2019-05-19T14:53:57.411Z,6.97
2019-05-19T14:56:28.071Z,6.03
2019-05-19T14:59:01.507Z,7.40
2019-05-19T15:01:36.596Z,6.30
2019-05-19T15:04:19.288Z,10.40
2019-05-19T15:06:53.005Z,6.40
2019-05-19T15:09:33.660Z,6.47
2019-05-19T15:12:10.565Z,6.23
2019-05-19T15:14:41.188Z,5.63
2019-05-19T15:17:20.093Z,7.30
2019-05-19T15:19:51.164Z,6.10
2019-05-19T15:22:27.133Z,5.87
2019-05-19T15:24:59.075Z,6.40
2019-05-19T15:27:32.971Z,6.63
2019-05-19T15:30:13.277Z,5.50
2019-05-19T15:32:42.621Z,7.23
2019-05-19T15:35:16.502Z,5.37
2019-05-19T15:37:52.641Z,5.70
2019-05-19T15:40:23.308Z,5.77
2019-05-19T15:42:54.331Z,5.63
2019-05-19T15:45:25.516Z,7.07
2019-05-19T15:48:02.706Z,6.57
2019-05-19T15:50:33.835Z,6.83
2019-05-19T15:53:04.656Z,5.90
2019-05-19T15:55:35.305Z,9.20
2019-05-19T15:58:16.447Z,6.00
2019-05-19T16:01:00.286Z,5.97
2019-05-19T16:03:31.094Z,6.33
2019-05-19T16:06:02.101Z,7.03
2019-05-19T16:08:34.491Z,5.77
2019-05-19T16:11:10.276Z,6.50
2019-05-19T16:13:40.759Z,6.87
2019-05-19T16:16:14.525Z,6.87
2019-05-19T16:19:04.090Z,7.10
2019-05-19T16:21:34.542Z,7.20
2019-05-19T16:24:08.079Z,7.57
2019-05-19T16:26:55.624Z,7.23
2019-05-19T16:29:33.852Z,7.13
2019-05-19T16:32:08.451Z,8.00
2019-05-19T16:34:41.223Z,7.90
2019-05-19T16:37:37.520Z,9.20
2019-05-19T16:40:12.406Z,8.87
2019-05-19T16:43:15.785Z,12.60
2019-05-19T16:45:48.898Z,10.77
2019-05-19T16:48:19.378Z,12.23
2019-05-19T16:50:49.836Z,10.17
2019-05-19T16:53:25.164Z,10.13
2019-05-19T16:55:55.262Z,9.90
2019-05-19T16:58:44.512Z,10.73
2019-05-19T17:01:04.420Z,10.77
2019-05-19T17:03:36.781Z,12.67
2019-05-19T17:06:08.705Z,11.30
2019-05-19T17:08:39.131Z,14.23
2019-05-19T17:11:17.942Z,16.30
2019-05-19T17:13:42.386Z,17.57
2019-05-19T17:16:17.092Z,13.53
2019-05-19T17:18:49.083Z,11.83
2019-05-19T17:21:24.109Z,12.13
2019-05-19T17:23:57.630Z,14.00
2019-05-19T17:26:30.093Z,11.57
2019-05-19T17:29:01.184Z,12.53
2019-05-19T17:31:43.204Z,11.73
2019-05-19T17:34:13.885Z,13.93
2019-05-19T17:36:53.947Z,13.70
2019-05-19T17:39:35.100Z,11.70
2019-05-19T17:42:09.088Z,11.10
2019-05-19T17:44:42.689Z,11.83
2019-05-19T17:47:14.332Z,11.33
2019-05-19T17:49:46.547Z,11.80
2019-05-19T17:52:17.077Z,16.13
2019-05-19T17:54:50.358Z,10.83
2019-05-19T17:57:25.007Z,12.43
2019-05-19T17:59:57.643Z,14.17
2019-05-19T18:02:32.865Z,12.37
2019-05-19T18:05:06.872Z,19.80
2019-05-19T18:07:40.586Z,14.70
2019-05-19T18:10:13.292Z,14.27
2019-05-19T18:12:50.987Z,15.93
2019-05-19T18:15:23.301Z,17.67
2019-05-19T18:17:58.622Z,21.47
2019-05-19T18:20:29.362Z,16.73
2019-05-19T18:23:03.779Z,15.00
2019-05-19T18:25:34.333Z,14.57
2019-05-19T18:28:05.582Z,14.70
2019-05-19T18:30:37.937Z,14.77
2019-05-19T18:36:19.463Z,12.87
2019-05-19T18:38:50.678Z,14.80
2019-05-19T18:41:25.536Z,14.50
2019-05-19T18:43:56.042Z,15.10
2019-05-19T18:46:40.795Z,14.23
2019-05-19T18:49:11.238Z,16.77
2019-05-19T18:51:44.254Z,18.97
2019-05-19T18:54:16.290Z,15.17
2019-05-19T18:56:46.698Z,17.17
2019-05-19T18:59:27.177Z,18.20
2019-05-19T19:02:00.691Z,17.07
2019-05-19T19:04:34.315Z,16.80
2019-05-19T19:07:07.934Z,17.27
2019-05-19T19:09:54.903Z,17.77
2019-05-19T19:12:32.248Z,22.10
2019-05-19T19:15:11.023Z,21.10
2019-05-19T19:17:46.250Z,18.93
2019-05-19T19:20:19.814Z,18.10
2019-05-19T19:22:53.756Z,19.83
2019-05-19T19:25:26.976Z,18.07
2019-05-19T19:27:59.392Z,21.20
2019-05-19T19:30:33.891Z,18.77
2019-05-19T19:33:04.573Z,18.17
2019-05-19T19:35:39.102Z,18.00
2019-05-19T19:38:13.290Z,19.23
2019-05-19T19:40:44.204Z,17.50
2019-05-19T19:43:35.090Z,18.67
2019-05-19T19:46:02.378Z,16.50
2019-05-19T19:48:39.039Z,20.23
2019-05-19T19:51:27.589Z,20.67
2019-05-19T19:53:58.782Z,17.03
2019-05-19T19:56:30.827Z,16.53
2019-05-19T19:59:09.120Z,17.27
2019-05-19T20:01:42.614Z,19.17
2019-05-19T20:04:16.745Z,17.40
2019-05-19T20:06:48.064Z,19.23
2019-05-19T20:09:21.305Z,16.37
2019-05-19T20:12:10.881Z,18.07
2019-05-19T20:14:46.496Z,18.63
2019-05-19T20:17:24.601Z,16.73
2019-05-19T20:20:16.089Z,17.10
2019-05-19T20:22:55.263Z,17.27
2019-05-19T20:25:25.799Z,16.60
2019-05-19T20:27:59.503Z,17.07
2019-05-19T20:30:35.582Z,16.57
2019-05-19T20:33:02.960Z,16.90
2019-05-19T20:35:34.541Z,20.80
2019-05-19T20:40:58.985Z,18.33
2019-05-19T20:43:31.328Z,17.57
2019-05-19T20:46:05.442Z,19.23
2019-05-19T20:48:38.133Z,21.37
2019-05-19T20:51:12.091Z,16.40
2019-05-19T20:53:49.315Z,17.00
2019-05-19T20:56:20.404Z,16.77
2019-05-19T20:58:52.290Z,20.60
2019-05-19T21:01:23.145Z,16.67
2019-05-19T21:03:55.320Z,18.03
2019-05-19T21:06:31.206Z,18.53
2019-05-19T21:09:02.007Z,18.60
2019-05-19T21:11:35.076Z,17.40
2019-05-19T21:14:10.258Z,17.53
2019-05-19T21:16:41.685Z,16.77
2019-05-19T21:19:14.121Z,17.23
2019-05-19T21:21:52.876Z,22.23
2019-05-19T21:24:28.675Z,17.50
2019-05-19T21:27:00.373Z,21.20
2019-05-19T21:29:32.095Z,20.93
2019-05-19T21:32:05.004Z,18.37
2019-05-19T21:34:38.701Z,17.80
2019-05-19T21:37:09.393Z,18.33
2019-05-19T21:39:42.825Z,16.73
2019-05-19T21:42:15.810Z,15.37
2019-05-19T21:44:48.392Z,16.47
2019-05-19T21:47:39.031Z,19.53
2019-05-19T21:50:11.414Z,19.57
2019-05-19T21:52:42.310Z,18.03
2019-05-19T21:55:13.611Z,19.10
2019-05-19T21:57:44.485Z,15.83
2019-05-19T22:00:25.834Z,18.47
2019-05-19T22:03:15.218Z,16.63
2019-05-19T22:05:53.703Z,19.53
2019-05-19T22:08:25.622Z,19.77
2019-05-19T22:11:04.871Z,15.40
2019-05-19T22:13:35.754Z,15.53
2019-05-19T22:16:25.396Z,15.87
2019-05-19T22:18:59.536Z,18.63
2019-05-19T22:21:30.396Z,20.27
2019-05-19T22:24:01.135Z,17.13
2019-05-19T22:26:32.025Z,18.03
2019-05-19T22:29:03.087Z,17.93
2019-05-19T22:31:36.930Z,17.80
2019-05-19T22:34:36.716Z,16.03
2019-05-19T22:37:07.544Z,15.77
2019-05-19T22:39:38.272Z,15.30
2019-05-19T22:42:10.345Z,17.47
2019-05-19T22:44:41.228Z,13.87
2019-05-19T22:47:14.899Z,16.70
2019-05-19T22:49:48.247Z,15.67
2019-05-19T22:52:19.024Z,15.50
2019-05-19T22:54:54.569Z,16.50
2019-05-19T22:57:25.412Z,16.70
2019-05-19T22:59:59.324Z,16.13
2019-05-19T23:02:34.698Z,15.07
2019-05-19T23:05:07.271Z,16.43
2019-05-19T23:07:44.751Z,14.37
2019-05-19T23:10:18.172Z,17.60
2019-05-19T23:12:53.067Z,15.53
2019-05-19T23:15:24.386Z,14.30
2019-05-19T23:17:56.795Z,15.50
2019-05-19T23:20:33.078Z,14.50
2019-05-19T23:23:06.379Z,19.00
2019-05-19T23:25:38.861Z,13.70
2019-05-19T23:28:11.976Z,13.73
2019-05-19T23:30:45.084Z,14.17
2019-05-19T23:33:17.041Z,13.17
2019-05-19T23:35:50.292Z,14.43
2019-05-19T23:38:21.024Z,14.07
2019-05-19T23:40:52.347Z,17.23
2019-05-19T23:43:26.042Z,14.33
2019-05-19T23:45:56.424Z,14.47
2019-05-19T23:48:27.297Z,14.17
2019-05-19T23:50:57.809Z,15.13
2019-05-19T23:53:29.162Z,13.90
2019-05-19T23:55:59.596Z,14.97
2019-05-19T23:58:31.611Z,13.60
